首页
METAR-TAF:

METAR-TAF

机场 :

Michael J. Smith Field

Beaufort, 北卡罗来纳州, 美国

纬度: 34-44-01N, 经度: 076-39-38W, 海拔: 3米

当前天气观测

该预报发布于20分钟前的19:58 UTC
风速25节,风向,有时为32节阵风
温度 12°C
湿度 94%
气压 1009 hPa
能見度: 16.1公里
阴天层高于1100英尺

METAR: KMRH 171958Z AUTO 01025G32KT 10SM OVC011 12/11 A2980 RMK AO2 PK WND 01033/1920 SLP091 T01220106 $

时间: 15:18 (20:18 UTC)


TAF: 丢失

超过4000个机场的气象观测和天气预报(METAR&TAF报告)。

可查询的气象台以黄色和红色小点在地图上表示。

将鼠标移到小点上方,可查看气象台名称。

然后点击查看天气观测和预报。

如需切换地图:点击带黑十字的绿色按钮放大地图;点击带横线的绿色按钮缩小地图;或者点击绿色箭头查看邻近地区的地图。


METAR-TAF: